createdAt,value
2023-02-14T00:00:48.867Z,99472.16
2023-02-14T00:03:15.898Z,99489.31
2023-02-14T00:05:42.530Z,99486.78
2023-02-14T00:08:09.297Z,99487.72
2023-02-14T00:10:35.909Z,99492.94
2023-02-14T00:13:02.509Z,99491.28
2023-02-14T00:15:29.664Z,99503.34
2023-02-14T00:17:59.722Z,99506.81
2023-02-14T00:20:27.799Z,99509.34
2023-02-14T00:22:54.820Z,99514.56
2023-02-14T00:25:21.546Z,99512.06
2023-02-14T00:27:48.334Z,99507.00
2023-02-14T00:30:15.444Z,99497.44
2023-02-14T00:32:42.959Z,99487.06
2023-02-14T00:35:10.544Z,99494.09
2023-02-14T00:37:40.768Z,99499.31
2023-02-14T00:40:08.004Z,99488.28
2023-02-14T00:42:35.033Z,99486.59
2023-02-14T00:45:01.625Z,99484.91
2023-02-14T00:47:28.276Z,99486.53
2023-02-14T00:49:54.940Z,99483.91
2023-02-14T00:52:21.504Z,99484.75
2023-02-14T00:54:48.170Z,99483.91
2023-02-14T00:57:14.784Z,99495.06
2023-02-14T00:59:41.426Z,99497.59
2023-02-14T01:02:08.191Z,99494.06
2023-02-14T01:04:35.114Z,99488.03
2023-02-14T01:07:01.768Z,99491.53
2023-02-14T01:09:28.384Z,99498.47
2023-02-14T01:11:55.073Z,99495.91
2023-02-14T01:14:21.720Z,99497.63
2023-02-14T01:16:49.870Z,99502.00
2023-02-14T01:19:16.830Z,99488.31
2023-02-14T01:21:43.921Z,99490.91
2023-02-14T01:24:12.854Z,99481.50
2023-02-14T01:26:42.060Z,99486.66
2023-02-14T01:29:09.386Z,99484.06
2023-02-14T01:31:36.449Z,99494.47
2023-02-14T01:34:04.353Z,99491.06
2023-02-14T01:36:36.865Z,99486.75
2023-02-14T01:39:11.279Z,99480.59
2023-02-14T01:41:41.361Z,99496.06
2023-02-14T01:44:28.407Z,99500.53
2023-02-14T01:46:56.518Z,99475.63
2023-02-14T01:49:35.720Z,99478.22
2023-02-14T01:52:17.320Z,99477.38
2023-02-14T01:54:52.112Z,99465.44
2023-02-14T01:57:23.257Z,99468.03
2023-02-14T02:00:17.429Z,99472.41
2023-02-14T02:02:44.329Z,99465.53
2023-02-14T02:05:11.930Z,99470.59
2023-02-14T02:07:39.315Z,99460.34
2023-02-14T02:10:06.933Z,99466.28
2023-02-14T02:12:38.378Z,99469.84
2023-02-14T02:15:06.451Z,99466.38
2023-02-14T02:17:35.957Z,99472.44
2023-02-14T02:21:00.572Z,99468.88
2023-02-14T02:23:45.173Z,99458.59
2023-02-14T02:26:41.812Z,99472.53
2023-02-14T02:29:20.463Z,99477.69
2023-02-14T02:32:11.237Z,99472.56
2023-02-14T02:34:56.211Z,99476.88
2023-02-14T02:37:49.064Z,99473.47
2023-02-14T02:40:28.088Z,99470.03
2023-02-14T02:43:32.141Z,99474.44
2023-02-14T02:46:35.662Z,99476.97
2023-02-14T02:49:40.254Z,99471.88
2023-02-14T02:52:50.047Z,99473.59
2023-02-14T02:55:26.457Z,99471.88
2023-02-14T02:57:56.412Z,99470.22
2023-02-14T03:00:25.181Z,99461.66
2023-02-14T03:03:15.216Z,99465.06
2023-02-14T03:05:43.258Z,99462.50
2023-02-14T03:08:10.027Z,99467.59
2023-02-14T03:10:39.336Z,99467.59
2023-02-14T03:13:24.978Z,99473.69
2023-02-14T03:15:56.018Z,99473.72
2023-02-14T03:18:56.669Z,99474.56
2023-02-14T03:21:41.984Z,99478.00
2023-02-14T03:24:30.199Z,99471.13
2023-02-14T03:27:21.874Z,99468.56
2023-02-14T03:29:58.808Z,99462.50
2023-02-14T03:32:46.333Z,99462.50
2023-02-14T03:35:18.131Z,99475.41
2023-02-14T03:38:13.649Z,99472.97
2023-02-14T03:40:49.511Z,99476.38
2023-02-14T03:43:24.699Z,99479.84
2023-02-14T03:46:27.855Z,99479.00
2023-02-14T03:48:58.394Z,99475.50
2023-02-14T03:51:27.882Z,99475.53
2023-02-14T03:53:58.048Z,99470.38
2023-02-14T03:56:53.705Z,99476.47
2023-02-14T03:59:23.677Z,99473.03
2023-02-14T04:01:53.324Z,99467.09
2023-02-14T04:04:22.865Z,99467.97
2023-02-14T04:06:49.789Z,99465.38
2023-02-14T04:09:16.525Z,99464.59
2023-02-14T04:11:43.598Z,99464.53
2023-02-14T04:14:10.354Z,99459.41
2023-02-14T04:16:56.909Z,99455.09
2023-02-14T04:19:23.707Z,99448.31
2023-02-14T04:21:51.916Z,99450.81
2023-02-14T04:24:19.390Z,99441.41
2023-02-14T04:27:10.640Z,99443.94
2023-02-14T04:29:44.103Z,99444.03
2023-02-14T04:32:13.951Z,99444.03
2023-02-14T04:34:41.217Z,99441.44
2023-02-14T04:37:08.997Z,99432.84
2023-02-14T04:39:35.986Z,99439.72
2023-02-14T04:42:03.563Z,99434.53
2023-02-14T04:44:30.318Z,99425.97
2023-02-14T04:46:57.474Z,99427.78
2023-02-14T04:49:24.056Z,99421.78
2023-02-14T04:51:50.727Z,99421.78
2023-02-14T04:54:17.372Z,99422.69
2023-02-14T04:56:44.192Z,99417.63
2023-02-14T04:59:10.962Z,99424.38
2023-02-14T05:01:37.767Z,99423.66
2023-02-14T05:04:04.519Z,99419.28
2023-02-14T05:06:31.561Z,99427.88
2023-02-14T05:08:58.882Z,99421.91
2023-02-14T05:11:25.533Z,99426.19
2023-02-14T05:13:52.402Z,99427.06
2023-02-14T05:16:19.299Z,99421.06
2023-02-14T05:18:46.088Z,99414.19
2023-02-14T05:21:13.613Z,99412.44
2023-02-14T05:23:40.395Z,99415.88
2023-02-14T05:26:07.783Z,99403.88
2023-02-14T05:28:34.486Z,99392.75
2023-02-14T05:31:01.822Z,99401.34
2023-02-14T05:33:28.751Z,99403.06
2023-02-14T05:35:55.332Z,99395.38
2023-02-14T05:38:22.068Z,99390.22
2023-02-14T05:40:48.668Z,99397.03
2023-02-14T05:43:15.303Z,99390.22
2023-02-14T05:45:42.016Z,99391.13
2023-02-14T05:48:08.792Z,99394.56
2023-02-14T05:50:35.401Z,99378.25
2023-02-14T05:53:02.085Z,99385.16
2023-02-14T05:55:28.766Z,99392.88
2023-02-14T05:57:55.344Z,99399.72
2023-02-14T06:00:23.978Z,99398.00
2023-02-14T06:02:51.046Z,99399.75
2023-02-14T06:05:18.341Z,99397.13
2023-02-14T06:07:50.472Z,99398.84
2023-02-14T06:10:18.688Z,99398.81
2023-02-14T06:12:45.948Z,99403.91
2023-02-14T06:15:12.821Z,99398.75
2023-02-14T06:17:39.419Z,99398.72
2023-02-14T06:20:09.474Z,99405.53
2023-02-14T06:22:37.655Z,99406.34
2023-02-14T06:25:05.259Z,99399.50
2023-02-14T06:27:33.162Z,99399.44
2023-02-14T06:30:00.539Z,99399.47
2023-02-14T06:32:27.322Z,99399.44
2023-02-14T06:34:53.990Z,99403.72
2023-02-14T06:37:20.853Z,99399.41
2023-02-14T06:39:47.634Z,99401.94
2023-02-14T06:42:14.294Z,99407.00
2023-02-14T06:44:41.298Z,99409.22
2023-02-14T06:47:08.588Z,99401.06
2023-02-14T06:49:35.273Z,99394.66
2023-02-14T06:52:02.268Z,99392.91
2023-02-14T06:54:28.846Z,99394.91
2023-02-14T06:56:55.428Z,99397.19
2023-02-14T06:59:22.764Z,99398.78
2023-02-14T07:01:49.525Z,99404.31
2023-02-14T07:04:17.832Z,99406.19
2023-02-14T07:06:48.236Z,99406.31
2023-02-14T07:09:17.858Z,99407.22
2023-02-14T07:11:45.355Z,99399.53
2023-02-14T07:14:13.129Z,99394.13
2023-02-14T07:16:39.818Z,99400.94
2023-02-14T07:19:06.432Z,99397.47
2023-02-14T07:21:33.327Z,99401.44
2023-02-14T07:23:59.975Z,99389.91
2023-02-14T07:26:26.619Z,99385.47
2023-02-14T07:28:53.361Z,99373.25
2023-02-14T07:31:21.016Z,99382.19
2023-02-14T07:33:47.929Z,99382.66
2023-02-14T07:36:14.514Z,99375.63
2023-02-14T07:38:41.120Z,99374.78
2023-02-14T07:41:08.280Z,99369.00
2023-02-14T07:43:34.873Z,99369.75
2023-02-14T07:46:03.437Z,99365.09
2023-02-14T07:48:32.485Z,99364.28
2023-02-14T07:51:00.682Z,99359.63
2023-02-14T07:53:27.529Z,99352.94
2023-02-14T07:55:54.238Z,99363.84
2023-02-14T07:58:20.963Z,99361.69
2023-02-14T08:00:47.690Z,99367.72
2023-02-14T08:03:15.460Z,99368.41
2023-02-14T08:05:42.097Z,99355.03
2023-02-14T08:08:09.146Z,99344.00
2023-02-14T08:10:35.736Z,99353.28
2023-02-14T08:13:03.616Z,99356.59
2023-02-14T08:15:53.684Z,99355.34
2023-02-14T08:18:23.237Z,99363.53
2023-02-14T08:20:50.218Z,99348.41
2023-02-14T08:23:18.917Z,99343.38
2023-02-14T08:25:45.878Z,99345.22
2023-02-14T08:28:13.945Z,99343.34
2023-02-14T08:30:41.061Z,99344.25
2023-02-14T08:33:08.153Z,99345.66
2023-02-14T08:35:35.735Z,99343.97
2023-02-14T08:38:02.638Z,99350.28
2023-02-14T08:40:29.509Z,99352.16
2023-02-14T08:42:56.129Z,99354.84
2023-02-14T08:45:23.125Z,99360.34
2023-02-14T08:47:49.756Z,99355.41
2023-02-14T08:50:18.314Z,99349.22
2023-02-14T08:52:45.165Z,99348.63
2023-02-14T08:55:13.836Z,99354.63
2023-02-14T08:57:40.751Z,99348.38
2023-02-14T09:00:09.896Z,99347.81
2023-02-14T09:02:36.668Z,99345.63
2023-02-14T09:05:03.952Z,99356.13
2023-02-14T09:07:30.621Z,99357.63
2023-02-14T09:09:57.346Z,99355.75
2023-02-14T09:12:24.203Z,99354.34
2023-02-14T09:14:50.770Z,99358.34
2023-02-14T09:17:18.007Z,99359.59
2023-02-14T09:19:44.775Z,99363.00
2023-02-14T09:22:11.662Z,99360.19
2023-02-14T09:24:39.915Z,99360.97
2023-02-14T09:27:07.460Z,99359.53
2023-02-14T09:29:34.356Z,99355.25
2023-02-14T09:32:02.154Z,99357.81
2023-02-14T09:34:48.324Z,99364.53
2023-02-14T09:37:34.872Z,99363.53
2023-02-14T09:40:01.481Z,99352.59
2023-02-14T09:42:53.476Z,99349.44
2023-02-14T09:45:26.496Z,99346.72
2023-02-14T09:48:30.961Z,99352.78
2023-02-14T09:51:03.675Z,99345.34
2023-02-14T09:53:35.940Z,99340.66
2023-02-14T09:56:14.562Z,99340.69
2023-02-14T09:58:53.756Z,99337.69
2023-02-14T10:01:32.891Z,99340.34
2023-02-14T10:04:21.336Z,99345.63
2023-02-14T10:07:10.314Z,99336.63
2023-02-14T10:09:54.457Z,99340.38
2023-02-14T10:12:31.684Z,99338.88
2023-02-14T10:15:02.112Z,99345.88
2023-02-14T10:17:40.473Z,99339.75
2023-02-14T10:20:27.193Z,99344.72
2023-02-14T10:23:05.488Z,99336.50
2023-02-14T10:25:42.695Z,99331.97
2023-02-14T10:28:16.456Z,99336.59
2023-02-14T10:30:55.199Z,99336.50
2023-02-14T10:33:28.606Z,99326.69
2023-02-14T10:36:08.835Z,99324.97
2023-02-14T10:38:55.831Z,99328.91
2023-02-14T10:41:25.049Z,99319.78
2023-02-14T10:44:12.808Z,99324.25
2023-02-14T10:46:59.164Z,99312.19
2023-02-14T10:49:25.684Z,99308.44
2023-02-14T10:52:16.130Z,99304.50
2023-02-14T10:54:46.361Z,99298.53
2023-02-14T10:57:21.052Z,99303.06
2023-02-14T11:00:06.848Z,99296.19
2023-02-14T11:02:41.312Z,99292.25
2023-02-14T11:05:14.489Z,99285.22
2023-02-14T11:07:44.428Z,99286.56
2023-02-14T11:10:14.956Z,99290.91
2023-02-14T11:12:42.034Z,99286.94
2023-02-14T11:15:33.784Z,99273.13
2023-02-14T11:18:25.514Z,99278.78
2023-02-14T11:21:04.190Z,99269.44
2023-02-14T11:23:39.060Z,99268.34
2023-02-14T11:26:11.762Z,99268.00
2023-02-14T11:28:48.880Z,99264.78
2023-02-14T11:31:25.401Z,99262.38
2023-02-14T11:33:54.363Z,99258.31
2023-02-14T11:36:21.584Z,99257.69
2023-02-14T11:39:03.773Z,99264.28
2023-02-14T11:41:47.776Z,99264.72
2023-02-14T11:44:22.636Z,99267.03
2023-02-14T11:46:54.637Z,99253.72
2023-02-14T11:49:35.286Z,99254.81
2023-02-14T11:52:10.613Z,99249.25
2023-02-14T11:54:40.888Z,99254.25
2023-02-14T11:57:28.984Z,99241.66
2023-02-14T11:59:57.885Z,99237.47
2023-02-14T12:02:39.782Z,99248.06
2023-02-14T12:05:20.811Z,99240.81
2023-02-14T12:07:51.687Z,99246.09
2023-02-14T12:10:25.246Z,99238.56
2023-02-14T12:12:54.667Z,99231.69
2023-02-14T12:15:44.132Z,99227.66
2023-02-14T12:18:35.441Z,99237.47
2023-02-14T12:21:26.033Z,99232.63
2023-02-14T12:24:20.373Z,99234.22
2023-02-14T12:26:55.289Z,99232.84
2023-02-14T12:29:29.071Z,99223.78
2023-02-14T12:32:00.896Z,99225.53
2023-02-14T12:34:27.733Z,99219.44
2023-02-14T12:37:06.413Z,99215.38
2023-02-14T12:39:49.005Z,99207.31
2023-02-14T12:42:32.815Z,99189.22
2023-02-14T12:45:15.886Z,99197.50
2023-02-14T12:48:24.580Z,99193.66
2023-02-14T12:51:02.849Z,99194.84
2023-02-14T12:53:35.264Z,99200.19
2023-02-14T12:56:26.481Z,99194.13
2023-02-14T12:58:58.771Z,99190.22
2023-02-14T13:01:38.526Z,99190.31
2023-02-14T13:04:42.120Z,99187.47
2023-02-14T13:07:38.308Z,99191.28
2023-02-14T13:10:38.660Z,99192.59
2023-02-14T13:13:29.987Z,99178.81
2023-02-14T13:16:02.461Z,99175.78
2023-02-14T13:18:44.574Z,99170.00
2023-02-14T13:21:15.783Z,99175.31
2023-02-14T13:23:47.170Z,99173.09
2023-02-14T13:26:25.005Z,99171.75
2023-02-14T13:28:59.547Z,99170.88
2023-02-14T13:31:26.450Z,99161.91
2023-02-14T13:34:09.240Z,99159.22
2023-02-14T13:36:37.526Z,99155.94
2023-02-14T13:39:04.893Z,99158.03
2023-02-14T13:41:31.772Z,99158.66
2023-02-14T13:44:03.093Z,99165.00
2023-02-14T13:46:32.739Z,99162.44
2023-02-14T13:49:27.049Z,99158.38
2023-02-14T13:51:57.258Z,99148.97
2023-02-14T13:54:45.761Z,99159.56
2023-02-14T13:57:34.129Z,99151.53
2023-02-14T14:00:19.377Z,99154.22
2023-02-14T14:02:49.018Z,99154.94
2023-02-14T14:05:30.766Z,99147.44
2023-02-14T14:08:20.333Z,99149.78
2023-02-14T14:10:55.798Z,99148.75
2023-02-14T14:13:40.669Z,99149.84
2023-02-14T14:16:19.592Z,99149.00
2023-02-14T14:18:46.494Z,99147.97
2023-02-14T14:21:33.764Z,99154.22
2023-02-14T14:24:13.991Z,99160.94
2023-02-14T14:26:45.575Z,99161.31
2023-02-14T14:29:34.666Z,99152.81
2023-02-14T14:32:21.580Z,99160.06
2023-02-14T14:34:52.170Z,99151.84
2023-02-14T14:37:22.217Z,99156.75
2023-02-14T14:39:55.593Z,99162.00
2023-02-14T14:42:25.674Z,99156.53
2023-02-14T14:44:59.268Z,99152.94
2023-02-14T14:47:29.600Z,99155.34
2023-02-14T14:50:07.702Z,99153.34
2023-02-14T14:52:38.513Z,99151.88
2023-02-14T14:55:09.304Z,99158.72
2023-02-14T14:57:40.189Z,99168.66
2023-02-14T15:00:22.724Z,99158.88
2023-02-14T15:02:57.659Z,99158.69
2023-02-14T15:05:33.891Z,99175.56
2023-02-14T15:08:32.764Z,99173.06
2023-02-14T15:11:38.648Z,99169.19
2023-02-14T15:14:09.063Z,99176.78
2023-02-14T15:16:46.372Z,99166.25
2023-02-14T15:19:22.170Z,99172.84
2023-02-14T15:21:49.905Z,99173.13
2023-02-14T15:24:18.927Z,99176.47
2023-02-14T15:26:48.203Z,99173.41
2023-02-14T15:29:27.133Z,99169.91
2023-02-14T15:31:56.566Z,99175.78
2023-02-14T15:34:32.659Z,99176.78
2023-02-14T15:37:06.131Z,99178.75
2023-02-14T15:39:37.315Z,99186.16
2023-02-14T15:42:05.971Z,99176.97
2023-02-14T15:44:33.032Z,99184.81
2023-02-14T15:47:03.846Z,99188.00
2023-02-14T15:49:35.823Z,99191.13
2023-02-14T15:52:05.053Z,99189.56
2023-02-14T15:54:37.937Z,99190.81
2023-02-14T15:57:06.576Z,99186.78
2023-02-14T15:59:35.518Z,99190.59
2023-02-14T16:02:28.573Z,99191.78
2023-02-14T16:05:02.138Z,99193.59
2023-02-14T16:07:30.020Z,99196.28
2023-02-14T16:10:27.421Z,99200.56
2023-02-14T16:13:03.370Z,99196.97
2023-02-14T16:15:35.426Z,99201.94
2023-02-14T16:18:08.151Z,99202.56
2023-02-14T16:20:45.504Z,99212.31
2023-02-14T16:23:24.264Z,99214.53
2023-02-14T16:25:51.675Z,99214.63
2023-02-14T16:28:18.847Z,99221.50
2023-02-14T16:30:48.501Z,99219.25
2023-02-14T16:33:27.737Z,99222.91
2023-02-14T16:35:57.474Z,99229.31
2023-02-14T16:38:24.562Z,99219.97
2023-02-14T16:40:54.456Z,99228.31
2023-02-14T16:43:21.603Z,99226.16
2023-02-14T16:45:48.788Z,99235.16
2023-02-14T16:48:16.087Z,99233.44
2023-02-14T16:50:44.163Z,99235.34
2023-02-14T16:53:22.899Z,99237.97
2023-02-14T16:55:51.022Z,99239.56
2023-02-14T16:58:19.543Z,99238.78
2023-02-14T17:00:46.360Z,99241.16
2023-02-14T17:03:13.430Z,99241.03
2023-02-14T17:05:41.122Z,99237.28
2023-02-14T17:08:11.142Z,99244.56
2023-02-14T17:10:39.480Z,99236.53
2023-02-14T17:13:07.071Z,99245.13
2023-02-14T17:15:34.108Z,99244.50
2023-02-14T17:18:04.953Z,99242.31
2023-02-14T17:20:31.662Z,99246.03
2023-02-14T17:22:58.352Z,99239.09
2023-02-14T17:25:26.156Z,99244.00
2023-02-14T17:27:52.836Z,99247.66
2023-02-14T17:30:19.829Z,99253.19
2023-02-14T17:32:46.608Z,99256.91
2023-02-14T17:35:14.548Z,99241.66
2023-02-14T17:37:41.748Z,99252.16
2023-02-14T17:40:09.288Z,99245.59
2023-02-14T17:42:36.377Z,99244.00
2023-02-14T17:45:06.146Z,99244.78
2023-02-14T17:47:34.303Z,99253.56
2023-02-14T17:50:03.465Z,99248.50
2023-02-14T17:52:30.877Z,99249.72
2023-02-14T17:54:57.540Z,99245.63
2023-02-14T17:57:28.795Z,99246.59
2023-02-14T18:00:06.693Z,99247.75
2023-02-14T18:02:39.815Z,99246.91
2023-02-14T18:05:07.893Z,99256.56
2023-02-14T18:07:34.645Z,99250.09
2023-02-14T18:10:01.375Z,99250.13
2023-02-14T18:12:27.999Z,99250.25
2023-02-14T18:14:56.477Z,99251.84
2023-02-14T18:17:24.048Z,99253.47
2023-02-14T18:19:51.896Z,99250.97
2023-02-14T18:22:19.165Z,99247.78
2023-02-14T18:24:46.663Z,99255.75
2023-02-14T18:27:16.513Z,99250.56
2023-02-14T18:29:43.369Z,99248.84
2023-02-14T18:32:10.841Z,99238.69
2023-02-14T18:34:38.675Z,99247.56
2023-02-14T18:37:06.306Z,99245.31
2023-02-14T18:39:33.466Z,99250.59
2023-02-14T18:42:01.581Z,99261.13
2023-02-14T18:44:29.268Z,99253.75
2023-02-14T18:46:56.922Z,99257.44
2023-02-14T18:49:23.836Z,99255.88
2023-02-14T18:51:50.924Z,99256.75
2023-02-14T18:54:18.176Z,99252.53
2023-02-14T18:56:45.447Z,99255.06
2023-02-14T18:59:13.507Z,99260.31
2023-02-14T19:01:44.991Z,99252.63
2023-02-14T19:04:12.946Z,99254.97
2023-02-14T19:06:42.299Z,99262.19
2023-02-14T19:09:14.917Z,99264.09
2023-02-14T19:11:42.379Z,99263.16
2023-02-14T19:14:10.798Z,99264.25
2023-02-14T19:16:44.405Z,99260.25
2023-02-14T19:19:12.252Z,99263.50
2023-02-14T19:21:39.664Z,99271.53
2023-02-14T19:24:07.307Z,99272.41
2023-02-14T19:26:40.303Z,99270.50
2023-02-14T19:29:13.502Z,99275.81
2023-02-14T19:31:43.307Z,99283.03
2023-02-14T19:34:20.477Z,99284.81
2023-02-14T19:36:49.082Z,99292.44
2023-02-14T19:39:17.241Z,99290.69
2023-02-14T19:41:44.961Z,99292.56
2023-02-14T19:44:14.408Z,99294.22
2023-02-14T19:46:43.338Z,99281.47
2023-02-14T19:49:16.441Z,99283.94
2023-02-14T19:51:44.541Z,99286.47
2023-02-14T19:54:12.843Z,99285.00
2023-02-14T19:56:43.312Z,99287.75
2023-02-14T19:59:16.600Z,99291.25
2023-02-14T20:01:52.318Z,99288.00
2023-02-14T20:04:26.131Z,99291.72
2023-02-14T20:06:55.072Z,99288.47
2023-02-14T20:09:23.750Z,99282.56
2023-02-14T20:11:54.964Z,99293.00
2023-02-14T20:14:31.457Z,99284.50
2023-02-14T20:17:02.191Z,99289.47
2023-02-14T20:19:32.839Z,99290.53
2023-02-14T20:22:00.105Z,99279.47
2023-02-14T20:24:30.054Z,99276.19
2023-02-14T20:26:57.818Z,99278.81
2023-02-14T20:29:26.722Z,99279.53
2023-02-14T20:31:57.929Z,99279.56
2023-02-14T20:34:24.736Z,99285.75
2023-02-14T20:36:56.141Z,99278.47
2023-02-14T20:39:28.939Z,99289.41
2023-02-14T20:41:55.888Z,99280.03
2023-02-14T20:44:23.134Z,99282.81
2023-02-14T20:46:52.722Z,99281.06
2023-02-14T20:49:24.756Z,99279.44
2023-02-14T20:51:53.272Z,99276.75
2023-02-14T20:54:21.958Z,99262.19
2023-02-14T20:56:50.641Z,99272.63
2023-02-14T20:59:19.329Z,99269.00
2023-02-14T21:01:46.357Z,99277.00
2023-02-14T21:04:14.090Z,99278.66
2023-02-14T21:06:41.112Z,99275.13
2023-02-14T21:09:08.683Z,99280.38
2023-02-14T21:11:35.557Z,99273.56
2023-02-14T21:14:03.009Z,99282.38
2023-02-14T21:16:30.301Z,99280.69
2023-02-14T21:18:59.471Z,99271.53
2023-02-14T21:21:32.442Z,99278.44
2023-02-14T21:24:00.355Z,99274.22
2023-02-14T21:26:27.405Z,99281.00
2023-02-14T21:28:54.375Z,99273.69
2023-02-14T21:31:21.877Z,99281.63
2023-02-14T21:33:53.848Z,99281.06
2023-02-14T21:36:22.432Z,99288.19
2023-02-14T21:38:49.303Z,99275.47
2023-02-14T21:41:19.202Z,99284.06
2023-02-14T21:43:47.947Z,99280.69
2023-02-14T21:46:17.004Z,99278.22
2023-02-14T21:49:03.413Z,99285.09
2023-02-14T21:51:31.434Z,99275.56
2023-02-14T21:54:01.772Z,99284.13
2023-02-14T21:56:28.557Z,99272.97
2023-02-14T21:58:55.779Z,99277.31
2023-02-14T22:01:28.631Z,99281.56
2023-02-14T22:03:55.826Z,99276.38
2023-02-14T22:06:23.557Z,99277.19
2023-02-14T22:08:58.351Z,99277.16
2023-02-14T22:11:27.917Z,99278.88
2023-02-14T22:13:55.889Z,99280.66
2023-02-14T22:16:23.790Z,99289.41
2023-02-14T22:18:51.153Z,99283.38
2023-02-14T22:21:21.559Z,99286.63
2023-02-14T22:23:48.556Z,99285.69
2023-02-14T22:26:23.895Z,99284.53
2023-02-14T22:28:53.915Z,99287.72
2023-02-14T22:31:20.898Z,99286.00
2023-02-14T22:33:48.786Z,99286.72
2023-02-14T22:36:15.845Z,99285.66
2023-02-14T22:38:42.829Z,99292.38
2023-02-14T22:41:17.647Z,99288.78
2023-02-14T22:43:45.109Z,99292.09
2023-02-14T22:46:14.812Z,99301.50
2023-02-14T22:48:41.691Z,99291.97
2023-02-14T22:51:12.493Z,99294.16
2023-02-14T22:53:39.441Z,99290.53
2023-02-14T22:56:21.110Z,99284.41
2023-02-14T22:58:47.706Z,99285.00
2023-02-14T23:01:16.388Z,99294.50
2023-02-14T23:03:44.031Z,99293.41
2023-02-14T23:06:11.242Z,99284.53
2023-02-14T23:08:46.209Z,99286.88
2023-02-14T23:11:15.752Z,99286.78
2023-02-14T23:14:01.165Z,99289.06
2023-02-14T23:16:46.637Z,99292.22
2023-02-14T23:19:34.629Z,99281.94
2023-02-14T23:22:10.312Z,99283.28
2023-02-14T23:24:37.948Z,99286.78
2023-02-14T23:27:05.605Z,99285.84
2023-02-14T23:29:32.702Z,99280.44
2023-02-14T23:31:59.400Z,99275.25
2023-02-14T23:34:28.681Z,99269.94
2023-02-14T23:36:55.357Z,99275.81
2023-02-14T23:39:22.198Z,99261.78
2023-02-14T23:41:49.171Z,99273.16
2023-02-14T23:44:20.351Z,99267.06
2023-02-14T23:46:48.818Z,99259.84
2023-02-14T23:49:16.485Z,99259.84
2023-02-14T23:51:44.911Z,99257.13
2023-02-14T23:54:12.477Z,99252.91
2023-02-14T23:56:39.948Z,99258.13
2023-02-14T23:59:08.012Z,99247.66
